createdAt,value
2018-04-25T00:01:20.393Z,8.30
2018-04-25T00:03:52.582Z,8.30
2018-04-25T00:06:27.830Z,8.20
2018-04-25T00:11:32.215Z,8.20
2018-04-25T00:14:09.562Z,8.20
2018-04-25T00:16:40.920Z,8.10
2018-04-25T00:19:12.770Z,8.10
2018-04-25T00:24:19.788Z,8.00
2018-04-25T00:26:50.537Z,8.00
2018-04-25T00:29:21.292Z,8.00
2018-04-25T00:31:59.815Z,7.90
2018-04-25T00:34:30.184Z,7.90
2018-04-25T00:37:08.250Z,7.80
2018-04-25T00:39:38.029Z,7.80
2018-04-25T00:42:08.211Z,7.80
2018-04-25T00:44:37.375Z,7.80
2018-04-25T00:47:07.940Z,7.80
2018-04-25T00:49:37.438Z,7.80
2018-04-25T00:52:07.974Z,7.80
2018-04-25T00:54:39.527Z,7.80
2018-04-25T00:57:13.902Z,7.70
2018-04-25T00:59:44.226Z,7.70
2018-04-25T01:02:17.632Z,7.70
2018-04-25T01:04:46.471Z,7.70
2018-04-25T01:07:19.257Z,7.70
2018-04-25T01:09:46.925Z,7.80
2018-04-25T01:12:14.543Z,7.70
2018-04-25T01:14:42.176Z,7.70
2018-04-25T01:17:10.744Z,7.70
2018-04-25T01:19:38.322Z,7.70
2018-04-25T01:22:05.937Z,7.60
2018-04-25T01:24:33.528Z,7.60
2018-04-25T01:27:03.763Z,7.60
2018-04-25T01:29:31.394Z,7.60
2018-04-25T01:31:59.775Z,7.50
2018-04-25T01:34:38.958Z,7.50
2018-04-25T01:37:08.104Z,7.50
2018-04-25T01:39:41.571Z,7.40
2018-04-25T01:42:15.690Z,7.40
2018-04-25T01:44:43.292Z,7.40
2018-04-25T01:47:16.332Z,7.30
2018-04-25T02:03:45.199Z,7.30
2018-04-25T02:06:12.787Z,7.30
2018-04-25T02:08:40.466Z,7.30
2018-04-25T02:11:08.057Z,7.30
2018-04-25T02:13:35.700Z,7.30
2018-04-25T02:16:03.377Z,7.20
2018-04-25T02:18:35.860Z,7.30
2018-04-25T02:21:03.461Z,7.20
2018-04-25T02:23:31.120Z,7.20
2018-04-25T02:25:58.780Z,7.20
2018-04-25T02:28:27.289Z,7.20
2018-04-25T02:30:54.985Z,7.20
2018-04-25T02:33:22.649Z,7.30
2018-04-25T02:35:50.270Z,7.30
2018-04-25T02:38:17.912Z,7.30
2018-04-25T02:40:45.493Z,7.30
2018-04-25T02:43:13.105Z,7.30
2018-04-25T02:45:47.370Z,7.40
2018-04-25T02:48:14.977Z,7.40
2018-04-25T02:50:42.564Z,7.40
2018-04-25T02:53:10.229Z,7.40
2018-04-25T02:55:38.450Z,7.30
2018-04-25T02:58:06.082Z,7.40
2018-04-25T03:00:33.705Z,7.30
2018-04-25T03:03:01.366Z,7.30
2018-04-25T03:05:29.026Z,7.30
2018-04-25T03:07:56.661Z,7.20
2018-04-25T03:10:24.257Z,7.20
2018-04-25T03:12:52.910Z,7.10
2018-04-25T03:15:20.532Z,7.10
2018-04-25T03:17:48.885Z,7.00
2018-04-25T03:20:16.521Z,7.00
2018-04-25T03:22:44.891Z,7.00
2018-04-25T03:25:12.552Z,7.00
2018-04-25T03:27:40.878Z,7.10
2018-04-25T03:30:08.465Z,7.10
2018-04-25T03:32:36.073Z,7.20
2018-04-25T03:35:03.712Z,7.20
2018-04-25T03:37:31.316Z,7.30
2018-04-25T03:39:58.959Z,7.30
2018-04-25T03:42:26.580Z,7.40
2018-04-25T03:44:54.188Z,7.40
2018-04-25T03:47:22.038Z,7.50
2018-04-25T03:49:49.677Z,7.50
2018-04-25T03:52:17.326Z,7.60
2018-04-25T03:54:44.945Z,7.60
2018-04-25T03:57:12.566Z,7.70
2018-04-25T03:59:40.228Z,7.70
2018-04-25T04:02:07.810Z,7.70
2018-04-25T04:04:35.448Z,7.70
2018-04-25T04:07:03.026Z,7.80
2018-04-25T04:09:30.657Z,7.80
2018-04-25T04:11:58.241Z,7.80
2018-04-25T04:14:25.877Z,7.80
2018-04-25T04:16:53.472Z,7.80
2018-04-25T04:19:21.171Z,7.80
2018-04-25T04:21:48.699Z,7.90
2018-04-25T04:24:16.330Z,7.90
2018-04-25T04:26:43.945Z,7.90
2018-04-25T04:29:11.648Z,7.90
2018-04-25T04:31:39.282Z,8.00
2018-04-25T04:34:06.971Z,8.10
2018-04-25T04:36:34.566Z,8.30
2018-04-25T04:39:02.171Z,8.30
2018-04-25T04:41:29.754Z,8.30
2018-04-25T04:43:57.369Z,8.30
2018-04-25T04:46:25.001Z,8.30
2018-04-25T04:48:52.572Z,8.30
2018-04-25T04:51:20.129Z,8.30
2018-04-25T04:53:47.680Z,8.40
2018-04-25T04:56:15.232Z,8.50
2018-04-25T04:58:42.755Z,8.60
2018-04-25T05:01:10.311Z,8.70
2018-04-25T05:03:37.852Z,8.90
2018-04-25T05:06:06.167Z,9.40
2018-04-25T05:08:33.741Z,9.30
2018-04-25T05:11:01.384Z,9.60
2018-04-25T05:13:28.910Z,9.80
2018-04-25T05:15:57.220Z,10.20
2018-04-25T05:18:25.332Z,10.20
2018-04-25T05:20:52.892Z,10.30
2018-04-25T05:23:21.197Z,10.50
2018-04-25T05:25:48.744Z,10.50
2018-04-25T05:28:17.043Z,10.60
2018-04-25T05:30:44.625Z,10.60
2018-04-25T05:33:12.163Z,10.50
2018-04-25T05:35:39.723Z,10.60
2018-04-25T05:38:07.429Z,10.60
2018-04-25T05:40:35.636Z,10.70
2018-04-25T05:43:03.946Z,11.00
2018-04-25T05:45:31.510Z,11.00
2018-04-25T05:47:59.055Z,11.40
2018-04-25T05:50:26.602Z,11.90
2018-04-25T05:52:54.136Z,12.40
2018-04-25T05:55:22.455Z,13.00
2018-04-25T05:57:50.010Z,12.90
2018-04-25T06:00:17.578Z,13.30
2018-04-25T06:02:45.114Z,13.60
2018-04-25T06:05:12.659Z,13.70
2018-04-25T06:07:40.193Z,13.90
2018-04-25T06:10:07.741Z,14.30
2018-04-25T06:12:35.335Z,15.20
2018-04-25T06:15:02.841Z,16.10
2018-04-25T06:17:30.377Z,16.50
2018-04-25T06:19:57.933Z,16.90
2018-04-25T06:22:25.473Z,16.80
2018-04-25T06:24:53.027Z,17.10
2018-04-25T06:27:21.399Z,17.60
2018-04-25T06:29:48.911Z,17.50
2018-04-25T06:32:16.446Z,17.70
2018-04-25T06:34:44.001Z,17.90
2018-04-25T06:37:11.527Z,18.80
2018-04-25T06:39:39.828Z,19.30
2018-04-25T06:42:07.428Z,19.30
2018-04-25T06:44:34.965Z,18.80
2018-04-25T06:47:02.508Z,18.90
2018-04-25T06:49:30.027Z,19.60
2018-04-25T06:51:57.565Z,19.60
2018-04-25T06:54:25.096Z,19.60
2018-04-25T06:56:52.740Z,19.70
2018-04-25T06:59:20.207Z,20.10
2018-04-25T07:01:48.517Z,20.20
2018-04-25T07:04:16.048Z,20.20
2018-04-25T07:06:43.612Z,21.20
2018-04-25T07:09:11.165Z,21.80
2018-04-25T07:11:38.722Z,22.10
2018-04-25T07:14:06.295Z,22.30
2018-04-25T07:16:33.819Z,21.60
2018-04-25T07:19:01.355Z,21.30
2018-04-25T07:21:28.912Z,20.70
2018-04-25T07:23:57.283Z,20.80
2018-04-25T07:26:24.765Z,20.80
2018-04-25T07:28:52.288Z,21.00
2018-04-25T07:31:19.839Z,20.90
2018-04-25T07:33:47.362Z,20.50
2018-04-25T07:36:14.903Z,20.80
2018-04-25T07:38:42.439Z,21.40
2018-04-25T07:41:09.993Z,21.60
2018-04-25T07:43:38.290Z,22.40
2018-04-25T07:46:05.841Z,22.30
2018-04-25T07:48:33.372Z,22.50
2018-04-25T07:51:00.916Z,22.60
2018-04-25T07:53:28.448Z,24.20
2018-04-25T07:55:56.009Z,25.20
2018-04-25T07:58:23.544Z,24.30
2018-04-25T08:00:51.089Z,24.70
2018-04-25T08:03:19.384Z,24.00
2018-04-25T08:05:46.934Z,23.90
2018-04-25T08:08:14.472Z,24.10
2018-04-25T08:10:42.784Z,23.50
2018-04-25T08:13:22.246Z,23.40
2018-04-25T08:16:01.788Z,23.10
2018-04-25T08:18:42.289Z,23.30
2018-04-25T08:21:22.441Z,22.60
2018-04-25T08:23:50.779Z,23.00
2018-04-25T08:26:18.312Z,23.00
2018-04-25T08:28:45.831Z,22.80
2018-04-25T08:31:14.157Z,21.70
2018-04-25T08:33:41.694Z,21.70
2018-04-25T08:36:09.219Z,21.40
2018-04-25T08:38:36.766Z,21.60
2018-04-25T08:41:04.300Z,21.50
2018-04-25T08:43:31.843Z,21.60
2018-04-25T08:45:59.368Z,21.40
2018-04-25T08:48:27.834Z,21.60
2018-04-25T08:50:55.369Z,21.60
2018-04-25T08:53:22.924Z,22.00
2018-04-25T08:55:50.465Z,22.00
2018-04-25T08:58:18.020Z,21.70
2018-04-25T09:00:45.551Z,21.50
2018-04-25T09:03:13.089Z,21.50
2018-04-25T09:05:41.477Z,21.30
2018-04-25T09:08:08.955Z,21.20
2018-04-25T09:10:36.480Z,21.20
2018-04-25T09:13:06.560Z,21.30
2018-04-25T09:15:34.187Z,21.80
2018-04-25T09:18:01.658Z,21.60
2018-04-25T09:20:29.193Z,21.40
2018-04-25T09:22:56.780Z,21.00
2018-04-25T09:25:24.304Z,20.80
2018-04-25T09:27:52.621Z,21.40
2018-04-25T09:30:20.151Z,21.30
2018-04-25T09:32:48.493Z,21.40
2018-04-25T09:35:16.792Z,21.60
2018-04-25T09:37:44.343Z,21.60
2018-04-25T09:40:12.638Z,22.60
2018-04-25T09:42:40.184Z,22.60
2018-04-25T09:45:07.716Z,22.80
2018-04-25T09:47:35.269Z,23.30
2018-04-25T09:50:02.803Z,23.40
2018-04-25T09:52:30.347Z,23.90
2018-04-25T09:54:57.872Z,24.40
2018-04-25T09:57:26.273Z,24.50
2018-04-25T09:59:54.562Z,24.40
2018-04-25T10:02:27.710Z,24.70
2018-04-25T10:04:55.252Z,24.90
2018-04-25T10:07:22.808Z,25.60
2018-04-25T10:09:50.336Z,25.50
2018-04-25T10:12:17.892Z,25.50
2018-04-25T10:14:45.440Z,25.40
2018-04-25T10:17:12.999Z,24.60
2018-04-25T10:19:40.527Z,23.80
2018-04-25T10:22:08.873Z,23.00
2018-04-25T10:24:36.425Z,23.00
2018-04-25T10:27:04.235Z,22.80
2018-04-25T10:29:31.820Z,22.50
2018-04-25T10:32:00.160Z,22.00
2018-04-25T10:34:27.926Z,22.00
2018-04-25T10:36:56.252Z,21.90
2018-04-25T10:39:23.832Z,21.80
2018-04-25T10:41:51.388Z,22.80
2018-04-25T10:44:19.091Z,22.60
2018-04-25T10:46:47.092Z,22.60
2018-04-25T10:49:15.578Z,23.90
2018-04-25T10:51:43.140Z,23.90
2018-04-25T10:54:10.738Z,24.00
2018-04-25T10:56:39.037Z,26.60
2018-04-25T10:59:06.596Z,26.50
2018-04-25T11:01:34.168Z,27.40
2018-04-25T11:04:01.845Z,27.80
2018-04-25T11:06:29.613Z,27.70
2018-04-25T11:08:57.929Z,26.80
2018-04-25T11:11:26.233Z,26.10
2018-04-25T11:13:53.881Z,26.10
2018-04-25T11:16:22.198Z,25.50
2018-04-25T11:18:49.751Z,25.50
2018-04-25T11:21:17.291Z,25.70
2018-04-25T11:23:44.853Z,25.20
2018-04-25T11:26:12.449Z,24.60
2018-04-25T11:28:40.098Z,24.30
2018-04-25T11:31:07.656Z,25.20
2018-04-25T11:33:35.227Z,26.20
2018-04-25T11:36:02.795Z,27.10
2018-04-25T11:38:30.371Z,27.50
2018-04-25T11:40:58.694Z,28.10
2018-04-25T11:43:27.653Z,28.10
2018-04-25T11:45:55.977Z,28.00
2018-04-25T11:48:23.568Z,28.00
2018-04-25T11:50:51.147Z,28.20
2018-04-25T11:53:18.801Z,28.00
2018-04-25T11:55:47.125Z,27.90
2018-04-25T11:58:14.782Z,27.90
2018-04-25T12:00:42.342Z,27.90
2018-04-25T12:03:09.958Z,27.40
2018-04-25T12:05:37.537Z,26.80
2018-04-25T12:08:05.126Z,27.00
2018-04-25T12:10:32.700Z,27.20
2018-04-25T12:13:00.256Z,27.90
2018-04-25T12:15:27.809Z,27.20
2018-04-25T12:17:55.361Z,26.70
2018-04-25T12:20:22.924Z,25.90
2018-04-25T12:22:50.497Z,25.60
2018-04-25T12:25:18.030Z,24.70
2018-04-25T12:27:45.583Z,24.20
2018-04-25T12:30:13.151Z,24.00
2018-04-25T12:32:40.708Z,23.60
2018-04-25T12:35:08.285Z,23.40
2018-04-25T12:37:35.843Z,23.30
2018-04-25T12:40:03.424Z,23.20
2018-04-25T12:42:30.980Z,23.30
2018-04-25T12:44:58.543Z,23.40
2018-04-25T12:47:26.101Z,23.70
2018-04-25T12:49:53.657Z,23.90
2018-04-25T12:52:21.196Z,24.10
2018-04-25T12:54:48.789Z,24.30
2018-04-25T12:57:17.128Z,23.90
2018-04-25T12:59:44.745Z,23.90
2018-04-25T13:02:12.284Z,23.70
2018-04-25T13:04:40.619Z,23.90
2018-04-25T13:07:08.168Z,23.90
2018-04-25T13:09:36.425Z,23.90
2018-04-25T13:12:03.972Z,23.90
2018-04-25T13:14:31.542Z,23.70
2018-04-25T13:16:59.086Z,23.40
2018-04-25T13:19:27.708Z,22.90
2018-04-25T13:21:55.244Z,22.90
2018-04-25T13:24:22.848Z,22.90
2018-04-25T13:26:50.410Z,22.70
2018-04-25T13:29:17.997Z,22.70
2018-04-25T13:31:46.323Z,23.60
2018-04-25T13:34:13.887Z,23.50
2018-04-25T13:36:41.421Z,23.90
2018-04-25T13:39:08.989Z,24.70
2018-04-25T13:41:36.520Z,25.40
2018-04-25T13:44:04.109Z,25.80
2018-04-25T13:46:31.683Z,25.60
2018-04-25T13:48:59.277Z,25.60
2018-04-25T13:51:27.567Z,24.50
2018-04-25T13:53:55.941Z,24.20
2018-04-25T13:56:23.515Z,24.20
2018-04-25T13:58:51.112Z,24.10
2018-04-25T14:01:18.685Z,24.50
2018-04-25T14:03:46.271Z,24.90
2018-04-25T14:06:14.684Z,24.90
2018-04-25T14:08:42.208Z,24.90
2018-04-25T14:11:10.542Z,25.00
2018-04-25T14:13:38.111Z,25.00
2018-04-25T14:16:05.682Z,24.50
2018-04-25T14:18:33.245Z,24.70
2018-04-25T14:21:00.819Z,24.80
2018-04-25T14:23:29.172Z,24.40
2018-04-25T14:25:56.769Z,24.10
2018-04-25T14:28:24.336Z,23.90
2018-04-25T14:30:51.945Z,23.70
2018-04-25T14:33:19.552Z,23.40
2018-04-25T14:35:47.152Z,23.70
2018-04-25T14:38:14.704Z,24.10
2018-04-25T14:40:42.287Z,24.40
2018-04-25T14:43:09.944Z,24.60
2018-04-25T14:45:37.517Z,24.60
2018-04-25T14:48:05.099Z,24.50
2018-04-25T14:50:32.667Z,24.50
2018-04-25T14:53:00.198Z,24.70
2018-04-25T14:55:27.760Z,24.70
2018-04-25T14:57:56.068Z,24.60
2018-04-25T15:00:23.653Z,24.60
2018-04-25T15:02:51.180Z,24.40
2018-04-25T15:05:18.788Z,24.20
2018-04-25T15:07:46.311Z,24.30
2018-04-25T15:10:13.873Z,24.20
2018-04-25T15:12:41.407Z,24.30
2018-04-25T15:15:09.728Z,23.90
2018-04-25T15:17:37.268Z,23.90
2018-04-25T15:20:05.622Z,23.70
2018-04-25T15:22:33.139Z,23.60
2018-04-25T15:25:01.703Z,23.50
2018-04-25T15:27:29.241Z,23.20
2018-04-25T15:29:56.807Z,23.00
2018-04-25T15:32:24.345Z,22.90
2018-04-25T15:34:51.916Z,22.70
2018-04-25T15:37:19.462Z,22.70
2018-04-25T15:39:47.046Z,22.90
2018-04-25T15:42:14.575Z,22.80
2018-04-25T15:44:42.149Z,22.90
2018-04-25T15:47:09.684Z,22.90
2018-04-25T15:49:37.242Z,22.70
2018-04-25T15:52:05.594Z,22.60
2018-04-25T15:54:33.860Z,22.50
2018-04-25T15:57:01.400Z,22.40
2018-04-25T15:59:28.962Z,22.20
2018-04-25T16:01:56.492Z,22.10
2018-04-25T16:04:24.678Z,22.10
2018-04-25T16:06:52.241Z,21.90
2018-04-25T16:09:19.816Z,21.70
2018-04-25T16:11:47.364Z,21.70
2018-04-25T16:14:14.944Z,21.40
2018-04-25T16:16:42.479Z,21.30
2018-04-25T16:19:10.029Z,21.20
2018-04-25T16:21:38.348Z,20.60
2018-04-25T16:24:05.899Z,20.50
2018-04-25T16:26:33.445Z,20.40
2018-04-25T16:29:00.987Z,20.40
2018-04-25T16:31:28.544Z,20.30
2018-04-25T16:33:56.083Z,20.20
2018-04-25T16:36:23.644Z,20.10
2018-04-25T16:38:51.208Z,20.00
2018-04-25T16:41:19.517Z,19.80
2018-04-25T16:43:47.060Z,19.70
2018-04-25T16:46:14.621Z,19.60
2018-04-25T16:48:42.162Z,19.60
2018-04-25T16:51:09.727Z,19.60
2018-04-25T16:53:37.263Z,19.50
2018-04-25T16:56:07.697Z,19.50
2018-04-25T16:58:35.479Z,19.50
2018-04-25T17:01:03.337Z,19.40
2018-04-25T17:03:30.901Z,19.40
2018-04-25T17:05:58.447Z,19.30
2018-04-25T17:08:26.000Z,19.20
2018-04-25T17:10:53.587Z,19.00
2018-04-25T17:13:21.151Z,18.80
2018-04-25T17:15:48.721Z,18.80
2018-04-25T17:18:16.257Z,18.80
2018-04-25T17:20:43.833Z,18.70
2018-04-25T17:23:11.375Z,18.70
2018-04-25T17:25:38.938Z,18.60
2018-04-25T17:28:06.500Z,18.60
2018-04-25T17:30:34.096Z,18.50
2018-04-25T17:33:02.429Z,18.40
2018-04-25T17:35:30.077Z,18.40
2018-04-25T17:37:57.644Z,18.40
2018-04-25T17:40:25.259Z,18.30
2018-04-25T17:42:53.622Z,18.20
2018-04-25T17:45:21.128Z,18.20
2018-04-25T17:47:48.669Z,18.10
2018-04-25T17:50:16.211Z,18.10
2018-04-25T17:52:44.515Z,17.90
2018-04-25T17:55:12.060Z,17.90
2018-04-25T17:57:40.352Z,17.80
2018-04-25T18:00:07.896Z,17.80
2018-04-25T18:02:35.430Z,17.80
2018-04-25T18:05:03.793Z,17.60
2018-04-25T18:07:31.323Z,17.60
2018-04-25T18:09:58.859Z,17.60
2018-04-25T18:12:26.431Z,17.50
2018-04-25T18:14:53.980Z,17.50
2018-04-25T18:17:21.522Z,17.40
2018-04-25T18:19:49.063Z,17.40
2018-04-25T18:22:17.397Z,17.30
2018-04-25T18:24:44.928Z,17.30
2018-04-25T18:27:12.489Z,17.20
2018-04-25T18:29:40.019Z,17.10
2018-04-25T18:32:08.344Z,16.90
2018-04-25T18:34:37.069Z,16.90
2018-04-25T18:37:05.467Z,16.60
2018-04-25T18:39:33.775Z,16.50
2018-04-25T18:42:02.092Z,16.50
2018-04-25T18:44:29.680Z,16.40
2018-04-25T18:46:57.253Z,16.30
2018-04-25T18:49:24.886Z,16.30
2018-04-25T18:51:52.404Z,16.20
2018-04-25T18:54:19.941Z,16.10
2018-04-25T18:56:47.513Z,16.10
2018-04-25T18:59:15.090Z,16.00
2018-04-25T19:01:42.664Z,15.90
2018-04-25T19:04:10.199Z,15.90
2018-04-25T19:06:37.751Z,15.80
2018-04-25T19:09:05.283Z,15.80
2018-04-25T19:11:32.832Z,15.80
2018-04-25T19:14:00.368Z,15.80
2018-04-25T19:16:27.923Z,15.70
2018-04-25T19:18:55.448Z,15.60
2018-04-25T19:21:23.011Z,15.60
2018-04-25T19:23:50.545Z,15.40
2018-04-25T19:26:18.096Z,15.40
2018-04-25T19:28:46.639Z,15.30
2018-04-25T19:31:14.188Z,15.20
2018-04-25T19:33:41.732Z,15.20
2018-04-25T19:36:09.305Z,15.10
2018-04-25T19:38:36.825Z,15.00
2018-04-25T19:41:04.376Z,14.90
2018-04-25T19:43:31.908Z,14.70
2018-04-25T19:46:00.219Z,14.50
2018-04-25T19:48:27.756Z,14.40
2018-04-25T19:50:55.309Z,14.40
2018-04-25T19:53:22.844Z,14.30
2018-04-25T19:55:51.161Z,14.00
2018-04-25T19:58:18.778Z,14.00
2018-04-25T20:00:47.131Z,14.10
2018-04-25T20:03:14.707Z,14.00
2018-04-25T20:05:42.395Z,14.10
2018-04-25T20:08:10.713Z,14.10
2018-04-25T20:10:41.054Z,14.10
2018-04-25T20:13:10.451Z,14.20
2018-04-25T20:15:38.796Z,14.00
2018-04-25T20:18:06.344Z,14.00
2018-04-25T20:20:34.668Z,13.90
2018-04-25T20:23:02.693Z,13.90
2018-04-25T20:25:30.866Z,14.00
2018-04-25T20:27:58.461Z,14.10
2018-04-25T20:32:58.233Z,14.10
2018-04-25T20:35:26.608Z,14.20
2018-04-25T20:37:54.964Z,14.30
2018-04-25T20:40:22.869Z,14.20
2018-04-25T20:42:52.601Z,14.30
2018-04-25T20:45:20.175Z,14.30
2018-04-25T20:47:47.773Z,14.30
2018-04-25T20:50:16.100Z,14.40
2018-04-25T20:52:43.677Z,14.40
2018-04-25T20:55:11.269Z,14.40
2018-04-25T20:57:38.858Z,14.50
2018-04-25T21:00:06.431Z,14.50
2018-04-25T21:02:34.003Z,14.50
2018-04-25T21:05:01.565Z,14.50
2018-04-25T21:07:29.164Z,14.50
2018-04-25T21:09:57.495Z,14.50
2018-04-25T21:12:25.078Z,14.50
2018-04-25T21:14:52.672Z,14.50
2018-04-25T21:17:20.288Z,14.60
2018-04-25T21:19:47.839Z,14.60
2018-04-25T21:22:24.188Z,14.60
2018-04-25T21:24:51.786Z,14.70
2018-04-25T21:27:19.401Z,14.70
2018-04-25T21:29:46.974Z,14.70
2018-04-25T21:32:14.546Z,14.70
2018-04-25T21:34:42.094Z,14.60
2018-04-25T21:37:09.693Z,14.60
2018-04-25T21:39:38.015Z,14.60
2018-04-25T21:42:05.617Z,14.60
2018-04-25T21:44:33.173Z,14.60
2018-04-25T21:47:00.736Z,14.60
2018-04-25T21:49:28.340Z,14.60
2018-04-25T21:51:55.929Z,14.60
2018-04-25T21:54:23.495Z,14.60
2018-04-25T21:56:51.142Z,14.60
2018-04-25T21:59:18.719Z,14.60
2018-04-25T22:01:46.287Z,14.60
2018-04-25T22:04:13.888Z,14.60
2018-04-25T22:06:41.468Z,14.60
2018-04-25T22:09:09.027Z,14.60
2018-04-25T22:11:36.628Z,14.60
2018-04-25T22:14:04.203Z,14.60
2018-04-25T22:16:32.562Z,14.60
2018-04-25T22:19:00.132Z,14.60
2018-04-25T22:21:27.725Z,14.60
2018-04-25T22:23:56.025Z,14.60
2018-04-25T22:26:23.588Z,14.60
2018-04-25T22:28:51.158Z,14.60
2018-04-25T22:31:18.733Z,14.60
2018-04-25T22:33:46.297Z,14.60
2018-04-25T22:36:13.833Z,14.60
2018-04-25T22:38:41.396Z,14.60
2018-04-25T22:41:10.063Z,14.60
2018-04-25T22:43:37.644Z,14.60
2018-04-25T22:46:05.214Z,14.50
2018-04-25T22:48:32.800Z,14.50
2018-04-25T22:51:01.120Z,14.50
2018-04-25T22:53:28.681Z,14.50
2018-04-25T22:55:56.256Z,14.50
2018-04-25T22:58:23.868Z,14.40
2018-04-25T23:00:51.456Z,14.40
2018-04-25T23:03:19.045Z,14.30
2018-04-25T23:05:46.664Z,14.30
2018-04-25T23:08:14.222Z,14.20
2018-04-25T23:10:41.777Z,14.20
2018-04-25T23:13:09.359Z,14.20
2018-04-25T23:15:36.903Z,14.20
2018-04-25T23:18:04.477Z,14.20
2018-04-25T23:20:32.014Z,14.10
2018-04-25T23:22:59.586Z,14.10
2018-04-25T23:25:27.124Z,14.10
2018-04-25T23:27:54.692Z,14.00
2018-04-25T23:30:22.239Z,14.00
2018-04-25T23:32:49.863Z,13.90
2018-04-25T23:35:17.415Z,13.90
2018-04-25T23:37:44.983Z,13.80
2018-04-25T23:40:12.515Z,13.80
2018-04-25T23:42:40.082Z,13.70
2018-04-25T23:45:07.640Z,13.60
2018-04-25T23:47:35.232Z,13.60
2018-04-25T23:50:03.555Z,13.60
2018-04-25T23:52:31.124Z,13.50
2018-04-25T23:54:58.682Z,13.50
2018-04-25T23:57:26.263Z,13.50
2018-04-25T23:59:53.815Z,13.50
